Bourne, Massachusetts
Current Conditions -  °F | °C
As of 9:55 PM on Thursday 18 Dec 2014 (Local Time) from KFMH Reporting Station
Clear Clear  
Wind Chill: 27°   Ceiling: Unl
Heat Index: 36°   Visibility: 10mi
Dew Point: 28°   Wind: 13mph
Humidity: 75%   Direction: 280°W
Pressure: 29.85"   Gusts: NA
Location:  41.6914°N, 70.6154°W
Report Text: KFMH 190255Z AUTO 28011KT 10SM CLR 02/M02 A2985 RMK AO2
Loading
Personal Weather Stations






























Interactive Weather Map New forecast layout! Learn more

10-Day Weather Forecast

Advertisements
Track Severe Weather on mobile